Pogue, Pennsylvania
Current Conditions -  °F | °C
As of 1:53 AM on Wednesday 26 Nov 2014 (Local Time) from KAOO Reporting Station
Clear Clear  
Wind Chill: 32°   Ceiling: Unl
Heat Index: 32°   Visibility: 10mi
Dew Point: 28°   Wind: 0mph
Humidity: 85%   Direction: NA
Pressure: 30.15"   Gusts: NA
Location:  40.1654°N, 77.9842°W
Report Text: KAOO 260653Z AUTO 00000KT 10SM CLR 00/M02 A3015 RMK AO2 SLP222 T00001022
Loading
Personal Weather Stations






























Interactive Weather Map New forecast layout! Learn more

10-Day Weather Forecast

Advertisements
Track Severe Weather on mobile